Airport View

Enter AWOS ICAO identifier for current METAR.

ex. KFNL

KGYH 250040Z AUTO 00000KT 10SM CLR 21/20 A3007 RMK AO2

25 May 2020 00:36

Frequency: 127.325

Phone: 864-277-5674

Other Area AWOS: KGMU - KGSP - KLQK - KAND

TAF KGMU 242341Z 2500/2524 04005KT P6SM VCSH SCT050 BKN090 FM250800 04004KT 5SM BR VCSH SCT015 BKN025 FM251000 05004KT 6SM BR VCSH SCT005 BKN010 PROB30 2517/2523 4SM TSRA BR OVC004CB